Terminal Aerodrome Forecast
Issued by NWS North Platte, NE

Home | Current Version | Previous Version | Text Only | Print | Product List | Glossary On
Versions: 1 2 3 4 5 6 7 8 9 10 11 12 13 14 15 16 17
263
FTUS43 KLBF 171120
TAFVTN
TAF
KVTN 171120Z 1712/1812 27007KT P6SM FEW250
     FM172100 22008KT P6SM FEW250
     FM181000 27008KT P6SM SCT250=

USA.gov is the U.S. government's official web portal to all federal, state and local government web resources and services.